Time;durP1;ratioP1;P1;durP2;ratioP2;P2;SDS_P1;SDS_P2;PMS_P1;PMS_P2;Temp;Humidity;BMP_temperature;BMP_pressure;BME280_temperature;BME280_humidity;BME280_pressure;Samples;Min_cycle;Max_cycle;Signal;HPM_P1;HPM_P2
2022/02/21 00:00:32;;;;;;;7.25;3.53;;;;;;;9.83;58.61;98364.63;5081140;28;20557;-73
2022/02/21 00:02:59;;;;;;;5.18;2.83;;;;;;;9.83;58.71;98360.19;5082198;28;20487;-70
2022/02/21 00:05:27;;;;;;;5.40;3.30;;;;;;;9.85;58.66;98362.66;5082520;28;20054;-71
2022/02/21 00:07:54;;;;;;;6.32;4.03;;;;;;;9.85;58.57;98360.03;5081509;28;20487;-73
2022/02/21 00:10:21;;;;;;;4.70;3.00;;;;;;;9.88;58.50;98354.44;5082830;28;20048;-71
2022/02/21 00:12:48;;;;;;;7.13;2.55;;;;;;;9.89;58.39;98348.22;5083239;28;20048;-74
2022/02/21 00:15:20;;;;;;;5.38;3.15;;;;;;;9.90;58.24;98341.94;5082781;28;20545;-71
2022/02/21 00:17:48;;;;;;;4.70;2.95;;;;;;;9.91;58.20;98335.69;5083176;28;20064;-70
2022/02/21 00:20:15;;;;;;;6.63;3.30;;;;;;;9.94;58.05;98328.31;5083391;28;20036;-72
2022/02/21 00:22:42;;;;;;;7.05;3.25;;;;;;;9.94;58.07;98336.22;5081984;28;20048;-72
2022/02/21 00:25:09;;;;;;;6.18;2.90;;;;;;;9.96;58.11;98322.88;5080394;28;20075;-72
2022/02/21 00:27:36;;;;;;;5.95;3.38;;;;;;;9.98;58.03;98325.38;5082608;28;20050;-71
2022/02/21 00:30:05;;;;;;;5.10;3.53;;;;;;;9.98;57.94;98307.72;5082811;28;20445;-72
2022/02/21 00:32:32;;;;;;;5.30;3.08;;;;;;;10.00;57.95;98308.41;5081210;28;20075;-71
2022/02/21 00:35:01;;;;;;;5.90;2.80;;;;;;;10.02;57.83;98293.22;5082745;28;20040;-72
2022/02/21 00:37:28;;;;;;;5.05;2.75;;;;;;;10.06;57.56;98299.84;5081889;28;20048;-71
2022/02/21 00:39:55;;;;;;;4.90;2.63;;;;;;;10.05;57.65;98287.66;5081874;28;20076;-71
2022/02/21 00:42:24;;;;;;;4.97;2.85;;;;;;;10.07;57.48;98288.31;5082003;28;20066;-71
2022/02/21 00:44:55;;;;;;;5.57;2.50;;;;;;;10.11;57.36;98286.19;5081373;28;20075;-72
2022/02/21 00:47:24;;;;;;;5.82;3.20;;;;;;;10.12;57.43;98264.94;5081982;28;20056;-71
2022/02/21 00:49:51;;;;;;;5.00;2.70;;;;;;;10.11;57.43;98265.91;5083949;28;20044;-72
2022/02/21 00:52:20;;;;;;;4.80;2.58;;;;;;;10.10;57.44;98256.38;5086603;28;20209;-70
2022/02/21 00:54:47;;;;;;;4.25;1.88;;;;;;;10.09;57.38;98254.69;5084774;28;20040;-70
2022/02/21 00:57:14;;;;;;;7.25;2.92;;;;;;;10.03;57.62;98252.69;5085882;28;20594;-71
2022/02/21 00:59:41;;;;;;;7.03;2.80;;;;;;;9.98;57.72;98254.97;5086701;28;20047;-70
2022/02/21 01:02:08;;;;;;;3.75;2.45;;;;;;;9.93;58.13;98249.34;5092113;28;20127;-71
2022/02/21 01:04:35;;;;;;;5.15;2.90;;;;;;;9.89;58.16;98245.38;5091146;28;20044;-70
2022/02/21 01:07:02;;;;;;;7.10;2.75;;;;;;;9.87;58.16;98242.06;5086584;28;20126;-74
2022/02/21 01:09:30;;;;;;;5.30;3.10;;;;;;;9.86;58.22;98225.41;5085700;28;20127;-71
2022/02/21 01:11:57;;;;;;;5.07;2.53;;;;;;;9.88;58.38;98226.06;5059723;28;20067;-70
2022/02/21 01:14:24;;;;;;;7.18;3.45;;;;;;;9.88;58.32;98217.34;5045659;28;20049;-72
2022/02/21 01:16:51;;;;;;;4.65;2.78;;;;;;;9.86;58.40;98220.13;5044991;28;20045;-70
2022/02/21 01:19:18;;;;;;;8.75;2.88;;;;;;;9.85;58.46;98204.47;5045164;28;20045;-71
2022/02/21 01:21:45;;;;;;;6.38;3.38;;;;;;;9.83;58.51;98211.69;5045476;28;20077;-70
2022/02/21 01:24:12;;;;;;;5.60;2.95;;;;;;;9.80;58.76;98193.59;5044008;28;20055;-72
2022/02/21 01:26:40;;;;;;;5.28;2.72;;;;;;;9.78;58.96;98201.66;5044181;28;20084;-71
2022/02/21 01:29:07;;;;;;;5.85;2.92;;;;;;;9.75;59.00;98200.13;5045369;28;20069;-70
2022/02/21 01:31:34;;;;;;;3.00;2.15;;;;;;;9.72;59.21;98192.56;5045834;28;20127;-72
2022/02/21 01:34:01;;;;;;;3.90;2.95;;;;;;;9.70;59.24;98178.69;5045821;28;20124;-71
2022/02/21 01:36:29;;;;;;;3.70;2.72;;;;;;;9.66;59.25;98177.34;5044981;28;20041;-72
2022/02/21 01:38:56;;;;;;;6.78;2.72;;;;;;;9.65;59.43;98180.97;5045214;28;20659;-70
2022/02/21 01:41:23;;;;;;;8.70;3.45;;;;;;;9.62;59.50;98172.56;5045417;28;20044;-70
2022/02/21 01:44:02;;;;;;;4.47;3.10;;;;;;;9.60;59.66;98156.06;5044917;28;20696;-71
2022/02/21 01:46:29;;;;;;;5.68;2.90;;;;;;;9.57;59.70;98154.56;5046425;28;20505;-72
2022/02/21 01:48:56;;;;;;;6.00;2.92;;;;;;;9.53;59.85;98150.59;5045447;28;20542;-70
2022/02/21 01:51:23;;;;;;;5.03;3.22;;;;;;;9.50;60.09;98148.28;5044022;28;20049;-70
2022/02/21 01:53:50;;;;;;;5.43;2.95;;;;;;;9.46;60.45;98142.47;5045159;28;20135;-71
2022/02/21 01:56:17;;;;;;;4.43;2.53;;;;;;;9.42;60.43;98129.75;5044316;28;20547;-70
2022/02/21 01:58:44;;;;;;;5.13;3.35;;;;;;;9.43;60.58;98129.63;5044736;28;20217;-70
2022/02/21 02:01:13;;;;;;;5.70;2.78;;;;;;;9.41;60.61;98117.59;5045572;28;20094;-72
2022/02/21 02:03:40;;;;;;;7.88;3.03;;;;;;;9.38;60.77;98101.13;5045378;28;20256;-72
2022/02/21 02:06:08;;;;;;;6.15;3.00;;;;;;;9.37;60.97;98096.00;5045190;28;20055;-71
2022/02/21 02:08:35;;;;;;;5.15;2.53;;;;;;;9.37;60.88;98101.28;5044724;28;20082;-72
2022/02/21 02:11:02;;;;;;;5.50;2.80;;;;;;;9.34;60.92;98083.94;5044496;28;20046;-70
2022/02/21 02:13:29;;;;;;;8.60;3.53;;;;;;;9.30;61.15;98090.53;5044779;28;20053;-70
2022/02/21 02:15:56;;;;;;;4.00;2.40;;;;;;;9.28;61.28;98084.59;5045090;28;20087;-69
2022/02/21 02:18:24;;;;;;;4.90;2.53;;;;;;;9.28;61.33;98074.06;5044500;28;20754;-70
2022/02/21 02:20:52;;;;;;;3.50;2.20;;;;;;;9.26;61.37;98060.22;5044403;28;20059;-70
2022/02/21 02:23:20;;;;;;;4.20;2.35;;;;;;;9.24;61.58;98056.91;5045599;28;20047;-72
2022/02/21 02:25:47;;;;;;;5.97;2.90;;;;;;;9.24;61.61;98050.81;5043378;28;20060;-70
2022/02/21 02:28:14;;;;;;;4.40;2.47;;;;;;;9.21;61.76;98049.31;5045320;28;20124;-70
2022/02/21 02:30:41;;;;;;;4.53;2.85;;;;;;;9.22;61.85;98042.22;5045206;28;20400;-71
2022/02/21 02:33:08;;;;;;;2.75;1.60;;;;;;;9.24;61.66;98041.13;5043778;28;20049;-70
2022/02/21 02:35:35;;;;;;;2.30;1.63;;;;;;;9.26;61.56;98031.25;5044908;28;20680;-71
2022/02/21 02:38:02;;;;;;;3.65;2.20;;;;;;;9.27;61.86;98013.63;5044666;28;20052;-70
2022/02/21 02:40:34;;;;;;;3.45;1.75;;;;;;;9.28;61.83;98016.09;5044235;28;20132;-71
2022/02/21 02:43:02;;;;;;;3.72;1.98;;;;;;;9.31;61.82;98009.69;5044239;28;20064;-69
2022/02/21 02:45:29;;;;;;;5.88;1.83;;;;;;;9.29;61.80;98012.50;5044309;28;20076;-70
2022/02/21 02:47:56;;;;;;;3.28;2.70;;;;;;;9.28;61.90;97999.47;5043461;28;20639;-72
2022/02/21 02:50:23;;;;;;;4.55;1.98;;;;;;;9.27;61.87;98000.44;5044536;28;20055;-71
2022/02/21 02:52:50;;;;;;;5.97;2.35;;;;;;;9.24;62.01;97983.16;5044737;28;20453;-71
2022/02/21 02:55:17;;;;;;;4.88;2.08;;;;;;;9.25;62.12;97991.88;5042816;28;20140;-72
2022/02/21 02:57:45;;;;;;;4.68;2.28;;;;;;;9.22;62.26;97985.13;5045126;28;20045;-70
2022/02/21 03:00:14;;;;;;;4.25;2.47;;;;;;;9.24;62.14;97967.34;5044631;28;20049;-70
2022/02/21 03:02:41;;;;;;;3.42;1.95;;;;;;;9.22;62.31;97963.22;5044738;28;20041;-74
2022/02/21 03:05:08;;;;;;;3.58;1.92;;;;;;;9.19;62.41;97959.91;5044752;28;20049;-73
2022/02/21 03:07:36;;;;;;;3.22;1.88;;;;;;;9.21;62.16;97943.16;5044089;28;20049;-73
2022/02/21 03:10:03;;;;;;;3.83;2.22;;;;;;;9.22;62.48;97948.25;5044067;28;20049;-71
2022/02/21 03:12:30;;;;;;;2.67;1.98;;;;;;;9.18;62.75;97941.63;5044091;28;20051;-71
2022/02/21 03:14:59;;;;;;;2.65;1.80;;;;;;;9.19;62.52;97938.84;5044496;28;20132;-71
2022/02/21 03:17:26;;;;;;;3.42;2.05;;;;;;;9.21;62.84;97928.16;5044102;28;20132;-72
2022/02/21 03:19:53;;;;;;;3.95;2.60;;;;;;;9.22;62.59;97932.47;5044283;28;20067;-71
2022/02/21 03:22:20;;;;;;;3.13;2.22;;;;;;;9.23;62.71;97923.56;5044252;28;20120;-73
2022/02/21 03:24:46;;;;;;;3.35;1.85;;;;;;;9.25;62.58;97911.03;5041891;28;20124;-70
2022/02/21 03:27:13;;;;;;;2.92;2.03;;;;;;;9.24;62.51;97909.41;5043655;28;20055;-70
2022/02/21 03:29:42;;;;;;;1.20;1.10;;;;;;;9.24;62.70;97913.84;5044296;28;20057;-72
2022/02/21 03:32:11;;;;;;;3.17;1.88;;;;;;;9.22;62.83;97903.47;5044242;28;20045;-71
2022/02/21 03:34:38;;;;;;;3.70;1.95;;;;;;;9.23;62.76;97897.22;5044441;28;20099;-71
2022/02/21 03:37:05;;;;;;;2.95;1.60;;;;;;;9.22;62.86;97895.59;5044732;28;20090;-71
2022/02/21 03:39:32;;;;;;;3.55;1.42;;;;;;;9.24;62.88;97885.72;5044804;28;20120;-71
2022/02/21 03:41:59;;;;;;;3.33;1.98;;;;;;;9.25;62.75;97887.34;5043896;28;20053;-72
2022/02/21 03:44:27;;;;;;;3.05;1.73;;;;;;;9.26;63.09;97878.47;5044439;28;20049;-72
2022/02/21 03:46:54;;;;;;;3.97;1.98;;;;;;;9.25;63.21;97868.91;5044026;28;20124;-71
2022/02/21 03:49:22;;;;;;;5.43;3.40;;;;;;;9.27;63.21;97872.19;5043619;28;20075;-71
2022/02/21 03:51:49;;;;;;;2.65;1.92;;;;;;;9.28;63.11;97863.31;5043247;28;20627;-70
2022/02/21 03:54:16;;;;;;;4.05;2.15;;;;;;;9.29;63.05;97849.19;5042066;28;20063;-71
2022/02/21 03:56:43;;;;;;;4.53;2.03;;;;;;;9.29;63.07;97849.19;5043600;28;20051;-71
2022/02/21 03:59:10;;;;;;;2.10;1.60;;;;;;;9.32;63.03;97837.47;5043319;28;20590;-70
2022/02/21 04:01:37;;;;;;;2.50;1.27;;;;;;;9.34;63.04;97827.59;5043314;28;20128;-71
2022/02/21 04:04:04;;;;;;;3.38;1.92;;;;;;;9.35;62.83;97826.63;5043081;28;20045;-71
2022/02/21 04:06:33;;;;;;;2.30;1.98;;;;;;;9.35;62.90;97822.16;5043325;28;20049;-70
2022/02/21 04:09:00;;;;;;;2.42;1.83;;;;;;;9.34;62.90;97823.16;5042906;28;20049;-69
2022/02/21 04:11:27;;;;;;;4.75;1.80;;;;;;;9.32;63.02;97809.31;5043180;28;20162;-70
2022/02/21 04:13:54;;;;;;;2.28;1.65;;;;;;;9.31;62.95;97802.41;5042752;28;20055;-69
2022/02/21 04:16:22;;;;;;;2.63;1.73;;;;;;;9.30;63.01;97797.31;5042732;28;20045;-69
2022/02/21 04:18:49;;;;;;;2.28;1.50;;;;;;;9.30;62.91;97792.84;5042638;28;20053;-71
2022/02/21 04:21:16;;;;;;;4.25;2.33;;;;;;;9.27;62.99;97787.91;5043751;28;20137;-72
2022/02/21 04:23:44;;;;;;;1.85;1.70;;;;;;;9.25;63.22;97784.63;5043670;28;20538;-71
2022/02/21 04:26:11;;;;;;;1.95;1.83;;;;;;;9.22;63.33;97784.97;5045498;28;20051;-71
2022/02/21 04:28:38;;;;;;;2.28;1.40;;;;;;;9.21;63.34;97791.22;5046889;28;20436;-70
2022/02/21 04:31:05;;;;;;;3.22;1.70;;;;;;;9.20;63.42;97771.13;5047500;28;20048;-72
2022/02/21 04:33:32;;;;;;;3.72;2.40;;;;;;;9.22;63.49;97773.59;5048994;28;20047;-69
2022/02/21 04:35:59;;;;;;;3.80;2.20;;;;;;;9.25;63.48;97768.81;5049017;28;20653;-71
2022/02/21 04:38:26;;;;;;;6.75;2.70;;;;;;;9.23;63.48;97768.16;5048250;28;20627;-71
2022/02/21 04:40:54;;;;;;;1.50;1.40;;;;;;;9.24;63.30;97769.81;5048687;28;20048;-71
2022/02/21 04:43:22;;;;;;;3.78;1.90;;;;;;;9.25;63.35;97766.19;5048244;28;20057;-69
2022/02/21 04:45:54;;;;;;;4.35;2.10;;;;;;;9.24;63.49;97761.06;5047945;28;20049;-70
2022/02/21 04:48:21;;;;;;;4.25;3.25;;;;;;;9.25;63.50;97760.09;5046909;28;20114;-70
2022/02/21 04:50:48;;;;;;;2.63;1.88;;;;;;;9.26;63.47;97753.84;5048133;28;20087;-70
2022/02/21 04:53:16;;;;;;;4.68;2.03;;;;;;;9.26;63.17;97752.03;5047548;28;20154;-71
2022/02/21 04:55:43;;;;;;;2.55;1.85;;;;;;;9.30;63.38;97755.97;5045564;28;20047;-73
2022/02/21 04:58:11;;;;;;;4.78;1.80;;;;;;;9.34;63.25;97757.28;5047723;28;20127;-70
2022/02/21 05:00:39;;;;;;;2.38;1.90;;;;;;;9.34;63.24;97751.22;5047557;28;20053;-70
2022/02/21 05:03:06;;;;;;;2.50;1.33;;;;;;;9.32;63.25;97748.72;5047256;28;20149;-69
2022/02/21 05:05:35;;;;;;;8.20;2.22;;;;;;;9.29;63.40;97746.44;5047377;28;20398;-70
2022/02/21 05:08:02;;;;;;;2.30;1.45;;;;;;;9.28;63.22;97747.41;5047726;28;20064;-70
2022/02/21 05:10:29;;;;;;;4.07;1.90;;;;;;;9.28;63.44;97736.06;5046570;28;20056;-77
2022/02/21 05:12:56;;;;;;;4.72;2.15;;;;;;;9.27;63.39;97740.50;5046829;28;20124;-70
2022/02/21 05:15:24;;;;;;;3.65;1.42;;;;;;;9.24;63.49;97719.78;5047101;28;20076;-71
2022/02/21 05:17:51;;;;;;;3.45;1.70;;;;;;;9.24;63.51;97721.56;5047086;28;20057;-72
2022/02/21 05:20:18;;;;;;;4.55;1.75;;;;;;;9.23;63.61;97728.66;5047968;28;20057;-70
2022/02/21 05:22:45;;;;;;;4.57;2.67;;;;;;;9.18;63.77;97726.53;5047079;28;20063;-73
2022/02/21 05:27:56;;;;;;;4.63;2.88;;;;;;;9.15;63.86;97716.31;5085225;23;20080;-70
2022/02/21 05:30:25;;;;;;;5.03;1.90;;;;;;;9.13;63.92;97722.75;4986851;28;20125;-71
2022/02/21 05:32:52;;;;;;;3.15;1.55;;;;;;;9.14;63.87;97716.47;4986752;28;20050;-69
2022/02/21 05:35:19;;;;;;;4.32;2.45;;;;;;;9.13;64.06;97707.75;4986772;28;20057;-71
2022/02/21 05:37:47;;;;;;;2.90;1.65;;;;;;;9.17;63.99;97708.25;4986377;28;20520;-71
2022/02/21 05:40:15;;;;;;;3.95;2.22;;;;;;;9.15;64.23;97700.50;4987347;28;20062;-72
2022/02/21 05:42:42;;;;;;;5.13;2.17;;;;;;;9.13;64.50;97699.03;4987114;28;20136;-75
2022/02/21 05:45:09;;;;;;;4.57;2.20;;;;;;;9.15;64.40;97699.69;4986632;28;20487;-73
2022/02/21 05:47:37;;;;;;;4.68;1.95;;;;;;;9.16;64.57;97706.59;4988081;28;20635;-74
2022/02/21 05:50:05;;;;;;;6.35;2.40;;;;;;;9.16;64.44;97702.19;4986644;28;20058;-72
2022/02/21 05:52:32;;;;;;;4.90;1.58;;;;;;;9.16;64.22;97689.00;4986175;28;20449;-71
2022/02/21 05:54:59;;;;;;;6.03;2.20;;;;;;;9.17;64.71;97687.19;4984431;28;20622;-71
2022/02/21 05:57:29;;;;;;;2.95;2.08;;;;;;;9.16;64.58;97681.09;4985426;28;20057;-71
2022/02/21 05:59:59;;;;;;;3.28;1.92;;;;;;;9.15;64.78;97689.16;4985413;28;20046;-74
2022/02/21 06:02:26;;;;;;;3.10;1.45;;;;;;;9.15;64.74;97679.44;4987076;28;20193;-67
2022/02/21 06:04:55;;;;;;;2.50;1.27;;;;;;;9.15;64.92;97689.97;4986691;28;20050;-73
2022/02/21 06:07:22;;;;;;;1.63;1.45;;;;;;;9.18;64.72;97670.38;4988232;28;20042;-70
2022/02/21 06:09:49;;;;;;;1.70;1.00;;;;;;;9.17;64.76;97663.50;4987329;28;20051;-70
2022/02/21 06:12:16;;;;;;;0.85;0.85;;;;;;;9.19;64.48;97661.50;4987653;28;20129;-70
2022/02/21 06:14:43;;;;;;;2.60;1.42;;;;;;;9.16;64.88;97651.28;4986874;28;20471;-71
2022/02/21 06:17:10;;;;;;;3.10;1.75;;;;;;;9.17;64.74;97645.06;4987295;28;20133;-70
2022/02/21 06:19:37;;;;;;;1.02;1.00;;;;;;;9.21;64.72;97635.81;4986916;28;20050;-70
2022/02/21 06:22:05;;;;;;;4.03;1.98;;;;;;;9.20;64.85;97628.94;4987446;28;20046;-72
2022/02/21 06:24:32;;;;;;;5.15;1.88;;;;;;;9.21;64.78;97614.75;4984011;28;20054;-71
2022/02/21 06:27:01;;;;;;;3.92;2.10;;;;;;;9.22;64.76;97632.22;4977313;28;20389;-71
2022/02/21 06:29:28;;;;;;;4.07;1.90;;;;;;;9.24;64.60;97622.31;4967366;28;20544;-72
2022/02/21 06:31:55;;;;;;;3.53;2.33;;;;;;;9.23;64.79;97619.84;4965526;28;20042;-71
2022/02/21 06:34:22;;;;;;;4.70;1.90;;;;;;;9.23;64.66;97627.75;4964890;28;20137;-72
2022/02/21 06:36:50;;;;;;;4.72;1.80;;;;;;;9.21;65.04;97633.19;4965479;28;20162;-72
2022/02/21 06:39:19;;;;;;;4.88;2.00;;;;;;;9.23;64.96;97630.38;4963313;28;20054;-72
2022/02/21 06:41:46;;;;;;;5.30;2.30;;;;;;;9.28;64.84;97636.78;4964609;28;20138;-70
2022/02/21 06:44:13;;;;;;;4.38;2.05;;;;;;;9.33;64.69;97634.50;4964706;28;20548;-73
2022/02/21 06:46:40;;;;;;;3.30;1.45;;;;;;;9.35;64.69;97636.97;4963325;28;20050;-73
2022/02/21 06:49:08;;;;;;;2.88;1.98;;;;;;;9.37;64.64;97619.16;4964024;28;20054;-72
2022/02/21 06:51:35;;;;;;;5.50;3.65;;;;;;;9.40;64.65;97637.28;4964910;28;20043;-71
2022/02/21 06:54:02;;;;;;;4.35;1.80;;;;;;;9.44;64.50;97621.97;4963638;28;20091;-73
2022/02/21 06:56:31;;;;;;;3.45;2.03;;;;;;;9.44;64.46;97633.31;4961872;28;20047;-71
2022/02/21 06:58:58;;;;;;;4.45;1.73;;;;;;;9.49;64.35;97623.09;4963435;28;20049;-72
2022/02/21 07:01:25;;;;;;;3.08;1.80;;;;;;;9.50;64.23;97634.44;4963106;28;20755;-71
2022/02/21 07:03:54;;;;;;;4.32;2.42;;;;;;;9.54;64.17;97631.31;4962986;28;20110;-72
2022/02/21 07:06:21;;;;;;;4.63;1.67;;;;;;;9.61;64.27;97636.72;4964279;28;20050;-72
2022/02/21 07:08:48;;;;;;;2.25;1.65;;;;;;;9.68;63.90;97615.78;4963235;28;20598;-70
2022/02/21 07:11:15;;;;;;;1.80;1.60;;;;;;;9.74;63.69;97625.63;4963738;28;20613;-72
2022/02/21 07:13:43;;;;;;;4.55;2.13;;;;;;;9.79;63.58;97623.31;4964612;28;20132;-72
2022/02/21 07:16:10;;;;;;;3.53;1.77;;;;;;;9.85;63.46;97617.38;4963923;28;20442;-71
2022/02/21 07:18:37;;;;;;;3.05;1.80;;;;;;;9.88;63.30;97616.19;4963017;28;20161;-69
2022/02/21 07:21:05;;;;;;;2.42;2.17;;;;;;;9.88;63.33;97619.66;4964411;28;20046;-71
2022/02/21 07:23:32;;;;;;;4.68;2.58;;;;;;;9.93;63.00;97619.13;4965065;28;20380;-73
2022/02/21 07:25:59;;;;;;;5.10;2.30;;;;;;;10.03;63.01;97621.56;4961197;28;20053;-71
2022/02/21 07:28:26;;;;;;;3.88;2.65;;;;;;;10.03;62.70;97625.03;4964323;28;20058;-72
2022/02/21 07:30:54;;;;;;;6.00;2.67;;;;;;;10.06;62.49;97618.59;4964543;28;20592;-71
2022/02/21 07:33:21;;;;;;;4.72;2.65;;;;;;;10.06;62.51;97624.66;4963722;28;20046;-72
2022/02/21 07:35:48;;;;;;;6.70;2.65;;;;;;;10.10;62.43;97636.53;4964567;28;20080;-71
2022/02/21 07:38:15;;;;;;;6.72;2.50;;;;;;;10.13;62.44;97633.53;4964347;28;20050;-70
2022/02/21 07:40:42;;;;;;;4.97;2.20;;;;;;;10.19;62.20;97639.13;4962559;28;20125;-71
2022/02/21 07:43:10;;;;;;;5.00;2.10;;;;;;;10.23;62.05;97637.78;4963992;28;20046;-70
2022/02/21 07:45:37;;;;;;;3.13;1.73;;;;;;;10.24;61.86;97648.16;4964115;28;20057;-71
2022/02/21 07:48:06;;;;;;;5.05;2.20;;;;;;;10.31;61.81;97645.69;4962942;28;20047;-72
2022/02/21 07:50:35;;;;;;;7.82;3.15;;;;;;;10.35;61.51;97643.53;4963893;28;20053;-72
2022/02/21 07:53:03;;;;;;;6.60;3.17;;;;;;;10.37;61.37;97631.81;4964875;28;20047;-71
2022/02/21 07:55:30;;;;;;;3.22;2.05;;;;;;;10.43;61.44;97640.84;4961532;28;20133;-73
2022/02/21 07:57:58;;;;;;;3.72;2.00;;;;;;;10.51;60.99;97628.44;4962976;28;20512;-71
2022/02/21 08:00:25;;;;;;;4.95;2.80;;;;;;;10.55;60.78;97633.31;4966718;28;20050;-70
2022/02/21 08:02:52;;;;;;;8.15;3.22;;;;;;;10.59;60.78;97629.34;4966288;28;20057;-71
2022/02/21 08:05:22;;;;;;;5.80;3.10;;;;;;;10.62;60.58;97636.91;4968092;28;20053;-70
2022/02/21 08:07:49;;;;;;;5.90;2.70;;;;;;;10.67;60.50;97642.50;4969661;28;20047;-72
2022/02/21 08:10:16;;;;;;;6.00;3.35;;;;;;;10.70;60.39;97639.50;4968992;28;20165;-70
2022/02/21 08:12:43;;;;;;;4.45;2.63;;;;;;;10.75;59.97;97637.16;4969148;28;20089;-71
2022/02/21 08:15:11;;;;;;;4.82;2.65;;;;;;;10.83;60.11;97637.09;4968296;28;20130;-71
2022/02/21 08:17:42;;;;;;;6.00;2.25;;;;;;;10.89;59.89;97646.94;4970140;28;20141;-71
2022/02/21 08:20:10;;;;;;;6.78;2.85;;;;;;;10.94;59.41;97651.69;4966363;28;20061;-68
2022/02/21 08:22:39;;;;;;;6.93;2.80;;;;;;;10.97;59.08;97635.50;4968188;28;20074;-72
2022/02/21 08:25:07;;;;;;;4.25;2.20;;;;;;;11.08;59.10;97652.72;4967076;28;20051;-70
2022/02/21 08:27:36;;;;;;;8.85;4.35;;;;;;;11.14;58.80;97644.09;4967560;28;20860;-73
2022/02/21 08:30:04;;;;;;;7.97;4.10;;;;;;;11.17;58.23;97641.09;4966111;28;20055;-73
2022/02/21 08:32:31;;;;;;;8.30;3.50;;;;;;;11.21;57.89;97638.91;4965542;28;20138;-73
2022/02/21 08:34:58;;;;;;;7.13;3.70;;;;;;;11.28;57.83;97660.97;4967079;28;20675;-71
2022/02/21 08:37:25;;;;;;;8.45;3.35;;;;;;;11.37;57.79;97654.59;4966650;28;20515;-70
2022/02/21 08:39:53;;;;;;;7.65;2.20;;;;;;;11.46;57.71;97642.13;4968013;28;20055;-72
2022/02/21 08:42:20;;;;;;;4.65;1.85;;;;;;;11.55;57.37;97630.47;4968823;28;20043;-71
2022/02/21 08:44:47;;;;;;;7.07;3.30;;;;;;;11.63;57.32;97643.63;4967198;28;20053;-70
2022/02/21 08:47:15;;;;;;;4.20;2.85;;;;;;;11.72;56.76;97636.41;4966901;28;20062;-72
2022/02/21 08:49:42;;;;;;;9.70;3.60;;;;;;;11.81;56.62;97631.81;4966364;28;20626;-70
2022/02/21 08:52:09;;;;;;;5.38;2.53;;;;;;;11.90;56.28;97651.91;4965252;28;20424;-70
2022/02/21 08:54:37;;;;;;;6.55;2.83;;;;;;;11.92;56.27;97644.66;4963535;28;20049;-69
2022/02/21 08:57:05;;;;;;;5.68;2.83;;;;;;;11.98;56.07;97659.75;4965718;28;20161;-71
2022/02/21 08:59:33;;;;;;;4.00;2.17;;;;;;;12.00;55.62;97649.81;4965560;28;20047;-70
2022/02/21 09:02:00;;;;;;;5.47;2.97;;;;;;;12.04;55.58;97651.06;4963750;28;20047;-68
2022/02/21 09:04:27;;;;;;;3.63;2.47;;;;;;;12.09;55.26;97647.09;4965808;28;20145;-70
2022/02/21 09:06:54;;;;;;;6.05;2.70;;;;;;;12.10;55.11;97649.53;4964719;28;20541;-70
2022/02/21 09:09:22;;;;;;;7.32;4.00;;;;;;;12.11;54.68;97655.66;4964764;28;20161;-71
2022/02/21 09:11:49;;;;;;;5.47;2.97;;;;;;;12.13;54.90;97657.09;4964811;28;20043;-70
2022/02/21 09:14:18;;;;;;;5.65;3.50;;;;;;;12.13;54.53;97667.69;4965461;28;20058;-69
2022/02/21 09:16:45;;;;;;;5.78;2.88;;;;;;;12.16;54.67;97659.38;4964458;28;20574;-70
2022/02/21 09:19:12;;;;;;;5.82;2.17;;;;;;;12.18;54.49;97661.84;4965837;28;20101;-71
2022/02/21 09:21:40;;;;;;;7.70;2.47;;;;;;;12.22;54.34;97649.88;4966855;28;20142;-71
2022/02/21 09:24:07;;;;;;;4.32;1.90;;;;;;;12.20;54.20;97660.63;4964372;28;20106;-71
2022/02/21 09:26:35;;;;;;;3.75;2.10;;;;;;;12.23;54.24;97668.22;4964927;28;20054;-70
2022/02/21 09:29:02;;;;;;;7.43;2.45;;;;;;;12.26;53.96;97663.56;4965363;28;20047;-69
2022/02/21 09:31:30;;;;;;;5.05;2.38;;;;;;;12.33;53.74;97665.25;4964474;28;20146;-69
2022/02/21 09:33:57;;;;;;;4.60;2.60;;;;;;;12.37;53.35;97660.41;4966623;28;20050;-70
2022/02/21 09:36:24;;;;;;;4.75;2.00;;;;;;;12.50;53.42;97670.38;4967456;28;20066;-70
2022/02/21 09:38:51;;;;;;;6.25;2.53;;;;;;;12.60;53.15;97657.63;4966921;28;20059;-70
2022/02/21 09:41:20;;;;;;;4.72;2.60;;;;;;;12.69;52.87;97637.94;4973503;28;20129;-70
2022/02/21 09:43:47;;;;;;;5.38;2.35;;;;;;;12.74;52.56;97650.63;4976205;28;20074;-72
2022/02/21 09:46:18;;;;;;;6.15;2.03;;;;;;;12.71;52.53;97658.94;4976127;28;20043;-73
2022/02/21 09:48:51;;;;;;;6.90;2.78;;;;;;;12.71;52.24;97667.75;4980279;28;20251;-69
2022/02/21 09:51:18;;;;;;;7.97;5.10;;;;;;;12.70;51.64;97663.44;4983624;28;20226;-70
2022/02/21 09:53:46;;;;;;;7.28;3.35;;;;;;;12.77;51.91;97663.50;4982371;28;20051;-71
2022/02/21 09:56:13;;;;;;;4.28;2.60;;;;;;;12.80;51.56;97660.47;4974734;28;20101;-69
2022/02/21 09:58:40;;;;;;;6.63;3.22;;;;;;;12.86;51.50;97665.03;4971397;28;20497;-70
2022/02/21 10:01:07;;;;;;;6.55;3.17;;;;;;;12.98;51.27;97675.91;4983154;28;20113;-71
2022/02/21 10:03:42;;;;;;;4.20;2.28;;;;;;;12.94;51.09;97678.13;4985850;28;20719;-71
2022/02/21 10:06:21;;;;;;;6.35;2.85;;;;;;;12.96;50.88;97680.59;4983065;28;20135;-72
2022/02/21 10:08:59;;;;;;;6.93;4.50;;;;;;;13.00;50.74;97671.28;4970197;28;20055;-70
2022/02/21 10:11:29;;;;;;;5.32;2.83;;;;;;;12.98;50.68;97668.81;4970997;28;20050;-70
2022/02/21 10:14:00;;;;;;;6.90;3.75;;;;;;;12.97;50.92;97669.00;4978069;28;20050;-72
2022/02/21 10:16:38;;;;;;;11.02;5.25;;;;;;;12.96;50.89;97680.59;4985182;28;20113;-70
2022/02/21 10:19:10;;;;;;;11.93;7.35;;;;;;;12.94;50.64;97679.97;4981277;28;20054;-71
2022/02/21 10:22:01;;;;;;;6.82;3.75;;;;;;;12.86;50.45;97670.31;4975867;28;20049;-71
2022/02/21 10:24:30;;;;;;;4.72;2.70;;;;;;;12.85;50.10;97673.97;4969825;28;20130;-70
2022/02/21 10:27:05;;;;;;;7.55;3.47;;;;;;;12.69;49.68;97680.31;4966459;28;20065;-71
2022/02/21 10:29:36;;;;;;;11.45;5.00;;;;;;;12.45;48.30;97694.75;4967195;28;20133;-71
2022/02/21 10:32:10;;;;;;;6.70;4.78;;;;;;;12.35;49.43;97702.97;4966422;28;20047;-74
2022/02/21 10:34:38;;;;;;;7.13;4.07;;;;;;;12.31;49.62;97717.56;4965111;28;20050;-71
2022/02/21 10:37:07;;;;;;;5.40;1.88;;;;;;;12.19;49.04;97717.22;4965113;28;20051;-70
2022/02/21 10:39:35;;;;;;;2.83;1.88;;;;;;;12.13;49.02;97727.72;4963604;28;20134;-72
2022/02/21 10:42:06;;;;;;;8.23;4.35;;;;;;;12.11;48.68;97724.44;4963238;28;20050;-71
2022/02/21 10:44:36;;;;;;;6.28;2.95;;;;;;;12.08;48.51;97722.97;4963577;28;20134;-73
2022/02/21 10:47:21;;;;;;;5.07;2.20;;;;;;;12.04;48.47;97725.16;4962476;28;20055;-71
2022/02/21 10:49:49;;;;;;;5.03;2.72;;;;;;;11.97;48.25;97734.81;4963722;28;20134;-70
2022/02/21 10:52:20;;;;;;;2.60;1.50;;;;;;;11.93;47.99;97727.44;4962828;28;20547;-72
2022/02/21 10:54:48;;;;;;;3.35;1.77;;;;;;;11.92;47.84;97746.97;4961283;28;20055;-72
2022/02/21 10:57:18;;;;;;;5.57;2.58;;;;;;;11.95;47.84;97742.13;4963550;28;20057;-72
2022/02/21 10:59:46;;;;;;;4.15;1.67;;;;;;;12.10;47.46;97754.53;4962622;28;20047;-73
2022/02/21 11:02:16;;;;;;;5.18;2.58;;;;;;;12.22;46.03;97755.72;4962784;28;20621;-72
2022/02/21 11:04:44;;;;;;;3.58;2.42;;;;;;;12.35;46.04;97760.38;4962929;28;20051;-73
2022/02/21 11:07:12;;;;;;;4.93;1.98;;;;;;;12.18;44.92;97751.81;4962890;28;20046;-73
2022/02/21 11:09:42;;;;;;;2.58;2.10;;;;;;;12.26;45.55;97767.56;4964173;28;20482;-73
2022/02/21 11:12:11;;;;;;;5.72;2.47;;;;;;;12.11;44.79;97780.00;4963696;28;20063;-74
2022/02/21 11:14:40;;;;;;;3.90;2.10;;;;;;;11.66;45.97;97772.78;4963248;28;20120;-73
2022/02/21 11:17:10;;;;;;;2.05;1.70;;;;;;;10.87;47.35;97759.00;4961113;28;20046;-68
2022/02/21 11:19:39;;;;;;;2.03;1.23;;;;;;;10.06;49.79;97822.47;4963087;28;20698;-75
2022/02/21 11:22:07;;;;;;;2.38;1.52;;;;;;;9.87;51.03;97833.38;4961653;28;20051;-73
2022/02/21 11:24:36;;;;;;;1.95;0.70;;;;;;;9.92;51.01;97866.19;4960470;28;20086;-70
2022/02/21 11:27:17;;;;;;;3.28;1.20;;;;;;;9.87;49.81;97855.31;4962512;28;20094;-71
2022/02/21 11:29:53;;;;;;;1.67;0.80;;;;;;;9.80;49.98;97851.69;4962656;28;20057;-73
2022/02/21 11:32:21;;;;;;;2.65;1.50;;;;;;;9.81;49.33;97842.75;4961275;28;20050;-73
2022/02/21 11:34:49;;;;;;;8.10;2.88;;;;;;;9.94;49.49;97863.38;4961051;28;20086;-72
2022/02/21 11:37:25;;;;;;;4.50;2.17;;;;;;;10.00;49.40;97864.53;4961688;28;20131;-74
2022/02/21 11:39:59;;;;;;;7.57;3.47;;;;;;;10.07;49.45;97868.97;4962792;28;20121;-73
2022/02/21 11:42:33;;;;;;;4.18;1.98;;;;;;;10.21;49.32;97880.66;4961110;28;20082;-74
2022/02/21 11:45:25;;;;;;;;;;;;;;;10.33;48.19;97873.22;5119537;27;20456;-72